Time;durP1;ratioP1;P1;durP2;ratioP2;P2;SDS_P1;SDS_P2;PMS_P1;PMS_P2;Temp;Humidity;BMP_temperature;BMP_pressure;BME280_temperature;BME280_humidity;BME280_pressure;Samples;Min_cycle;Max_cycle;Signal;HPM_P1;HPM_P2
2023/06/24 00:02:00;;;;;;;6.50;6.10;;;20.80;46.40;;;;;;20375;6834;310737;-75
2023/06/24 00:04:35;;;;;;;6.30;6.00;;;21.10;46.00;;;;;;20389;6822;315645;-75
2023/06/24 00:07:11;;;;;;;6.70;6.20;;;21.30;45.80;;;;;;20314;6863;311288;-77
2023/06/24 00:09:46;;;;;;;6.37;5.97;;;21.40;45.30;;;;;;20398;6841;343585;-77
2023/06/24 00:12:25;;;;;;;6.03;5.63;;;21.50;45.10;;;;;;20539;6847;117644;-77
2023/06/24 00:14:57;;;;;;;6.07;5.63;;;21.10;45.30;;;;;;20445;6847;120071;-77
2023/06/24 00:17:33;;;;;;;6.20;5.63;;;20.70;45.90;;;;;;20488;6845;118396;-77
2023/06/24 00:20:13;;;;;;;6.33;6.00;;;20.50;47.00;;;;;;20447;6807;314990;-76
2023/06/24 00:22:48;;;;;;;6.00;5.60;;;20.50;47.00;;;;;;20618;6822;117596;-76
2023/06/24 00:25:23;;;;;;;6.90;6.40;;;20.60;46.90;;;;;;20291;6822;282075;-76
2023/06/24 00:27:58;;;;;;;6.62;6.12;;;20.50;46.80;;;;;;20409;6820;342319;-76
2023/06/24 00:30:34;;;;;;;5.73;5.43;;;20.90;46.50;;;;;;20582;6836;117406;-75
2023/06/24 00:33:13;;;;;;;6.83;6.33;;;20.70;46.50;;;;;;20444;6806;279593;-76
2023/06/24 00:35:47;;;;;;;6.57;6.25;;;20.70;46.40;;;;;;20287;6815;314347;-76
2023/06/24 00:38:22;;;;;;;6.40;5.97;;;20.90;46.10;;;;;;20407;6836;280910;-76
2023/06/24 00:40:58;;;;;;;6.82;6.22;;;21.10;45.90;;;;;;20342;6832;284810;-78
2023/06/24 00:43:33;;;;;;;6.53;6.03;;;21.20;45.70;;;;;;20375;6832;310594;-78
2023/06/24 00:46:10;;;;;;;6.87;6.47;;;21.30;45.70;;;;;;20226;6822;310912;-81
2023/06/24 00:48:45;;;;;;;6.07;5.53;;;21.30;45.70;;;;;;20651;6807;117930;-79
2023/06/24 00:51:24;;;;;;;6.85;6.40;;;21.00;46.00;;;;;;20388;6821;309744;-77
2023/06/24 00:53:56;;;;;;;7.18;6.65;;;20.90;46.30;;;;;;20404;6822;314911;-79
2023/06/24 00:56:32;;;;;;;6.87;6.37;;;21.00;46.10;;;;;;20410;6822;311015;-76
2023/06/24 00:59:09;;;;;;;5.47;5.17;;;21.10;45.90;;;;;;20594;6822;119591;-76
2023/06/24 01:01:45;;;;;;;6.70;6.30;;;20.80;46.20;;;;;;20412;6822;314738;-76
2023/06/24 01:04:20;;;;;;;6.57;6.18;;;20.70;46.60;;;;;;20329;6836;342163;-77
2023/06/24 01:06:56;;;;;;;5.37;5.07;;;20.90;46.40;;;;;;20596;6822;123544;-76
2023/06/24 01:09:31;;;;;;;6.53;6.13;;;20.60;46.60;;;;;;20343;6837;321028;-76
2023/06/24 01:12:08;;;;;;;6.68;6.18;;;20.80;46.70;;;;;;20305;6837;340224;-76
2023/06/24 01:14:44;;;;;;;6.67;6.20;;;20.80;46.70;;;;;;20522;6845;118075;-76
2023/06/24 01:17:21;;;;;;;5.97;5.57;;;20.50;46.70;;;;;;20576;6829;117560;-76
2023/06/24 01:20:09;;;;;;;5.97;5.53;;;20.10;47.10;;;;;;20609;6815;124569;-76
2023/06/24 01:23:06;;;;;;;6.60;6.10;;;19.80;47.60;;;;;;20382;6830;279711;-76
2023/06/24 01:25:42;;;;;;;6.53;6.03;;;20.40;47.90;;;;;;20240;6830;282087;-76
2023/06/24 01:28:41;;;;;;;6.53;6.10;;;20.30;47.40;;;;;;20532;6826;117638;-76
2023/06/24 01:31:20;;;;;;;5.67;5.37;;;19.70;47.70;;;;;;20478;6896;118456;-76
2023/06/24 01:34:15;;;;;;;6.70;6.20;;;19.70;47.70;;;;;;20338;6839;297764;-76
2023/06/24 01:36:53;;;;;;;7.28;6.78;;;20.10;47.80;;;;;;20293;6854;309996;-76
2023/06/24 01:39:29;;;;;;;6.57;6.07;;;20.10;47.80;;;;;;20376;6906;117788;-76
2023/06/24 01:42:05;;;;;;;5.97;5.57;;;20.00;47.90;;;;;;20483;6871;118119;-77
2023/06/24 01:44:40;;;;;;;5.63;5.23;;;19.60;48.20;;;;;;20471;6853;117654;-76
2023/06/24 01:47:16;;;;;;;6.20;5.70;;;19.30;48.60;;;;;;20532;6848;118515;-76
2023/06/24 01:49:51;;;;;;;6.17;5.67;;;19.10;48.90;;;;;;20601;6830;123673;-77
2023/06/24 01:52:27;;;;;;;5.70;5.40;;;18.90;49.10;;;;;;20496;6848;124531;-77
2023/06/24 01:55:04;;;;;;;5.73;5.13;;;18.80;49.20;;;;;;20390;6868;123927;-77
2023/06/24 01:57:40;;;;;;;6.30;5.90;;;18.70;49.40;;;;;;20226;6886;281299;-76
2023/06/24 02:00:15;;;;;;;6.22;5.82;;;19.00;49.40;;;;;;20208;6878;341457;-77
2023/06/24 02:02:51;;;;;;;6.60;6.10;;;19.50;48.80;;;;;;20171;6893;282014;-76
2023/06/24 02:05:26;;;;;;;6.30;5.90;;;19.80;48.10;;;;;;20252;6847;345726;-76
2023/06/24 02:08:02;;;;;;;5.77;5.37;;;20.10;47.80;;;;;;20229;6820;118187;-77
2023/06/24 02:10:38;;;;;;;6.90;6.40;;;19.90;47.80;;;;;;20412;6820;308739;-76
2023/06/24 02:13:13;;;;;;;6.17;5.77;;;20.00;47.80;;;;;;20545;6835;120374;-77
2023/06/24 02:15:49;;;;;;;5.73;5.23;;;19.80;47.90;;;;;;20367;6850;117775;-76
2023/06/24 02:18:27;;;;;;;5.97;5.47;;;19.40;48.20;;;;;;20535;6825;117489;-76
2023/06/24 02:21:01;;;;;;;4.97;4.50;;;19.10;48.50;;;;;;20584;6825;118059;-76
2023/06/24 02:23:37;;;;;;;5.23;4.93;;;18.90;49.00;;;;;;20611;6825;117610;-76
2023/06/24 02:26:12;;;;;;;6.40;6.00;;;18.70;49.30;;;;;;20274;6825;289444;-76
2023/06/24 02:28:48;;;;;;;6.07;5.67;;;19.00;49.90;;;;;;20510;6841;150770;-77
2023/06/24 02:31:24;;;;;;;6.43;6.07;;;19.30;49.10;;;;;;20329;6847;315642;-76
2023/06/24 02:34:00;;;;;;;7.00;6.50;;;19.30;49.10;;;;;;20323;6847;281579;-77
2023/06/24 02:36:35;;;;;;;6.27;5.77;;;19.60;48.50;;;;;;20445;6866;118657;-76
2023/06/24 02:39:12;;;;;;;7.27;6.77;;;19.50;48.60;;;;;;20303;6847;310997;-75
2023/06/24 02:41:49;;;;;;;7.22;6.53;;;19.50;48.60;;;;;;20309;6847;290854;-76
2023/06/24 02:44:23;;;;;;;6.90;6.50;;;19.80;48.40;;;;;;20223;6849;312165;-76
2023/06/24 02:46:58;;;;;;;6.57;6.07;;;20.00;47.90;;;;;;20233;6857;309952;-76
2023/06/24 02:49:34;;;;;;;6.80;6.30;;;20.10;47.80;;;;;;20263;6857;312161;-77
2023/06/24 02:52:10;;;;;;;5.70;5.30;;;20.30;47.40;;;;;;20527;6845;117639;-77
2023/06/24 02:54:56;;;;;;;;;;;;;;;;;;;;;
2023/06/24 02:57:22;;;;;;;97.23;87.13;;;19.90;47.90;;;;;;20209;6837;281558;-77
2023/06/24 02:59:57;;;;;;;8.83;8.33;;;20.00;47.80;;;;;;20334;6837;280648;-78
2023/06/24 03:02:33;;;;;;;6.97;6.40;;;20.20;47.90;;;;;;20569;6832;117861;-77
2023/06/24 03:05:10;;;;;;;6.30;5.80;;;19.90;48.10;;;;;;20354;6876;118506;-76
2023/06/24 03:07:45;;;;;;;6.13;5.73;;;19.50;48.70;;;;;;20432;6869;117749;-78
2023/06/24 03:10:22;;;;;;;7.12;6.70;;;19.10;49.10;;;;;;20275;6856;285286;-76
2023/06/24 03:13:00;;;;;;;7.07;6.68;;;19.50;49.60;;;;;;20207;6866;310155;-77
2023/06/24 03:15:33;;;;;;;7.50;7.00;;;19.50;48.90;;;;;;20169;6863;321899;-77
2023/06/24 03:18:08;;;;;;;6.43;5.93;;;19.70;48.40;;;;;;20599;6827;117466;-77
2023/06/24 03:20:44;;;;;;;6.50;6.10;;;19.50;48.60;;;;;;20458;6857;123098;-76
2023/06/24 03:23:21;;;;;;;5.93;5.57;;;19.10;48.70;;;;;;20531;6853;117862;-76
2023/06/24 03:25:56;;;;;;;6.57;6.17;;;18.90;49.40;;;;;;20393;6844;118482;-76
2023/06/24 03:28:32;;;;;;;7.03;6.40;;;18.70;49.80;;;;;;20552;6835;117587;-77
2023/06/24 03:31:16;;;;;;;7.30;6.80;;;18.50;49.90;;;;;;20318;6835;326428;-77
2023/06/24 03:33:44;;;;;;;5.87;5.47;;;18.80;50.50;;;;;;20582;6835;117751;-77
2023/06/24 03:36:19;;;;;;;5.53;5.03;;;18.80;50.30;;;;;;20343;6906;117959;-76
2023/06/24 03:38:56;;;;;;;6.43;6.10;;;18.70;50.60;;;;;;20363;6829;311132;-77
2023/06/24 03:41:31;;;;;;;7.50;7.00;;;18.90;51.00;;;;;;20409;6820;280009;-76
2023/06/24 03:44:07;;;;;;;6.70;6.30;;;19.30;50.00;;;;;;20513;6849;119731;-77
2023/06/24 03:46:44;;;;;;;8.00;7.53;;;19.20;49.70;;;;;;20337;6843;284393;-76
2023/06/24 03:49:20;;;;;;;8.03;7.33;;;19.20;49.70;;;;;;20287;6848;308711;-76
2023/06/24 03:51:56;;;;;;;8.10;7.50;;;19.50;49.50;;;;;;20393;6825;280484;-77
2023/06/24 03:54:31;;;;;;;7.80;7.30;;;19.80;49.20;;;;;;20296;6842;286090;-76
2023/06/24 03:57:08;;;;;;;7.85;7.22;;;20.00;48.60;;;;;;20338;6830;279997;-77
2023/06/24 03:59:44;;;;;;;5.90;5.60;;;20.10;48.40;;;;;;20588;6830;117689;-77
2023/06/24 04:02:21;;;;;;;7.27;6.67;;;19.80;49.40;;;;;;20418;6815;313893;-77
2023/06/24 04:04:56;;;;;;;6.93;6.43;;;19.80;49.40;;;;;;20504;6829;121911;-77
2023/06/24 04:07:31;;;;;;;6.27;5.87;;;19.50;49.30;;;;;;20457;6841;120636;-77
2023/06/24 04:10:08;;;;;;;6.13;5.77;;;19.20;49.90;;;;;;20490;6841;118053;-76
2023/06/24 04:12:42;;;;;;;7.57;7.07;;;18.80;50.20;;;;;;20281;6856;312260;-76
2023/06/24 04:15:18;;;;;;;6.87;6.37;;;19.00;50.60;;;;;;20383;6856;118401;-77
2023/06/24 04:17:54;;;;;;;6.97;6.23;;;19.00;50.40;;;;;;20546;6837;117433;-77
2023/06/24 04:20:32;;;;;;;6.17;5.70;;;18.80;50.80;;;;;;20511;6842;119121;-77
2023/06/24 04:23:10;;;;;;;7.17;6.53;;;18.70;51.00;;;;;;20471;6857;118182;-77
2023/06/24 04:25:42;;;;;;;8.07;7.57;;;18.90;51.20;;;;;;20211;6833;298335;-77
2023/06/24 04:28:17;;;;;;;7.40;6.80;;;18.90;51.20;;;;;;20466;6863;118225;-77
2023/06/24 04:30:54;;;;;;;7.50;7.00;;;19.00;50.90;;;;;;20260;6850;314548;-77
2023/06/24 04:33:30;;;;;;;7.67;7.27;;;19.70;50.10;;;;;;20314;6833;280067;-76
2023/06/24 04:36:07;;;;;;;8.57;7.87;;;19.70;50.10;;;;;;20061;6869;314795;-77
2023/06/24 04:38:44;;;;;;;8.00;7.53;;;20.10;49.60;;;;;;20282;6857;305081;-78
2023/06/24 04:41:20;;;;;;;8.10;7.57;;;20.60;48.20;;;;;;20365;6839;279058;-76
2023/06/24 04:43:57;;;;;;;8.03;7.33;;;20.60;48.80;;;;;;20498;6850;118417;-74
2023/06/24 04:46:34;;;;;;;6.83;6.33;;;20.40;48.80;;;;;;20539;6857;120171;-74
2023/06/24 04:49:12;;;;;;;7.07;6.47;;;20.10;49.20;;;;;;20518;6848;122003;-74
2023/06/24 04:51:49;;;;;;;7.70;7.10;;;19.70;50.20;;;;;;20549;6854;117714;-74
2023/06/24 04:54:24;;;;;;;7.90;7.40;;;19.70;50.00;;;;;;20328;6828;311382;-74
2023/06/24 04:56:57;;;;;;;6.53;6.10;;;19.90;50.40;;;;;;20532;6830;118106;-74
2023/06/24 05:23:58;;;;;;;7.60;6.93;;;21.30;48.50;;;;;;21709;6477;134641;-73
2023/06/24 05:26:30;;;;;;;8.13;7.53;;;21.00;48.70;;;;;;20980;6536;336191;-73
2023/06/24 05:29:00;;;;;;;10.13;6.77;;;20.90;49.10;;;;;;20910;6750;118156;-73
2023/06/24 05:31:26;;;;;;;6.37;5.87;;;20.70;49.30;;;;;;20700;6751;310906;-74
2023/06/24 05:33:52;;;;;;;7.10;6.57;;;20.80;49.90;;;;;;20560;6807;315678;-74
2023/06/24 05:36:18;;;;;;;7.43;7.00;;;21.10;49.40;;;;;;20759;6807;118584;-74
2023/06/24 05:38:44;;;;;;;6.23;5.80;;;21.10;49.10;;;;;;20761;6807;121558;-74
2023/06/24 05:41:11;;;;;;;6.57;6.03;;;20.90;49.20;;;;;;20750;6807;120673;-73
2023/06/24 05:43:40;;;;;;;5.93;5.57;;;20.70;49.90;;;;;;20751;6807;117284;-72
2023/06/24 05:46:07;;;;;;;6.57;5.90;;;20.70;50.20;;;;;;20776;6807;117692;-74
2023/06/24 05:48:33;;;;;;;6.67;6.20;;;20.60;50.10;;;;;;20601;6806;281886;-75
2023/06/24 05:51:01;;;;;;;7.03;6.53;;;21.10;50.00;;;;;;20576;6806;292382;-74
2023/06/24 05:53:27;;;;;;;6.10;5.70;;;21.60;49.60;;;;;;20847;6806;67154;-76
2023/06/24 05:55:53;;;;;;;6.57;6.17;;;21.70;48.70;;;;;;20821;6806;117014;-76
2023/06/24 05:58:18;;;;;;;6.87;6.45;;;21.60;48.90;;;;;;20563;6821;307569;-75
2023/06/24 06:00:44;;;;;;;6.90;6.40;;;21.90;49.10;;;;;;20577;6821;282410;-74
2023/06/24 06:03:11;;;;;;;7.03;6.43;;;22.20;49.00;;;;;;20501;6825;307694;-74
2023/06/24 06:05:36;;;;;;;7.40;7.00;;;22.60;47.70;;;;;;20518;6835;306564;-75
2023/06/24 06:08:02;;;;;;;6.83;6.43;;;22.90;46.70;;;;;;20767;6820;117046;-76
2023/06/24 06:10:28;;;;;;;8.20;6.53;;;22.80;47.30;;;;;;20780;6820;117323;-75
2023/06/24 06:12:53;;;;;;;6.47;5.93;;;22.70;48.10;;;;;;20763;6806;118848;-75
2023/06/24 06:15:19;;;;;;;6.73;6.20;;;23.60;46.50;;;;;;20603;6806;308039;-75
2023/06/24 06:17:45;;;;;;;7.00;6.50;;;23.60;46.50;;;;;;20567;6810;306481;-77
2023/06/24 06:20:11;;;;;;;6.87;6.37;;;24.50;45.00;;;;;;20574;6810;281800;-76
2023/06/24 06:22:38;;;;;;;6.60;6.13;;;25.50;43.20;;;;;;20546;6825;305695;-75
2023/06/24 06:25:04;;;;;;;6.10;5.60;;;26.20;41.90;;;;;;20733;6825;143869;-80
2023/06/24 06:27:29;;;;;;;6.40;5.90;;;26.30;42.20;;;;;;20565;6810;306539;-79
2023/06/24 06:29:55;;;;;;;6.43;5.90;;;26.80;41.10;;;;;;20810;6810;117217;-79
2023/06/24 06:32:21;;;;;;;6.03;5.70;;;27.40;39.80;;;;;;20534;6825;281165;-76
2023/06/24 06:34:47;;;;;;;6.15;5.75;;;28.00;37.70;;;;;;20573;6818;340293;-76
2023/06/24 06:37:13;;;;;;;5.57;5.27;;;28.00;38.30;;;;;;20780;6817;117672;-76
2023/06/24 06:39:41;;;;;;;5.97;5.55;;;28.70;37.60;;;;;;20601;6813;341013;-77
2023/06/24 06:42:08;;;;;;;5.27;4.90;;;28.60;37.50;;;;;;20785;6813;122387;-77
2023/06/24 06:44:34;;;;;;;5.00;4.70;;;28.60;38.30;;;;;;20754;6830;119704;-74
2023/06/24 06:47:01;;;;;;;5.13;4.83;;;28.60;38.30;;;;;;20688;6842;117710;-79
2023/06/24 06:49:29;;;;;;;4.90;4.70;;;28.60;38.50;;;;;;20744;6835;118083;-76
2023/06/24 06:51:55;;;;;;;5.63;5.23;;;28.60;38.40;;;;;;20738;6835;117087;-77
2023/06/24 06:54:22;;;;;;;5.17;4.83;;;28.70;38.30;;;;;;20557;6823;311812;-79
2023/06/24 06:56:49;;;;;;;5.20;4.80;;;29.30;35.40;;;;;;20523;6823;278101;-81
2023/06/24 06:59:14;;;;;;;4.50;4.20;;;30.10;34.10;;;;;;20762;6829;117955;-76
2023/06/24 07:01:40;;;;;;;5.10;4.80;;;30.20;34.60;;;;;;20757;6829;117548;-77
2023/06/24 07:04:13;;;;;;;5.47;5.00;;;30.20;35.20;;;;;;20523;6841;279313;-77
2023/06/24 07:06:39;;;;;;;4.90;4.67;;;31.00;31.90;;;;;;20510;6841;279146;-79
2023/06/24 07:09:05;;;;;;;5.10;4.80;;;30.90;31.80;;;;;;20516;6834;306442;-79
2023/06/24 07:11:30;;;;;;;4.93;4.62;;;31.30;31.00;;;;;;20500;6845;324552;-80
2023/06/24 07:13:56;;;;;;;5.40;4.60;;;31.60;31.30;;;;;;20774;6826;117119;-82
2023/06/24 07:16:22;;;;;;;4.20;3.90;;;31.40;32.00;;;;;;20800;6826;116626;-78
2023/06/24 07:18:48;;;;;;;4.40;4.20;;;31.10;32.60;;;;;;20794;6826;116196;-79
2023/06/24 07:21:15;;;;;;;4.78;4.40;;;30.90;32.90;;;;;;20567;6826;305447;-77
2023/06/24 07:23:42;;;;;;;5.33;4.40;;;31.10;31.00;;;;;;20770;6826;117569;-78
2023/06/24 07:26:08;;;;;;;4.73;4.53;;;31.10;31.70;;;;;;20764;6826;117101;-77
2023/06/24 07:28:35;;;;;;;4.82;4.53;;;31.00;32.00;;;;;;20579;6826;280890;-76
2023/06/24 07:31:01;;;;;;;8.70;4.53;;;31.10;31.20;;;;;;20695;6834;120603;-78
2023/06/24 07:33:30;;;;;;;5.10;4.77;;;31.00;31.50;;;;;;20642;6834;116509;-76
2023/06/24 07:36:00;;;;;;;4.73;4.43;;;30.50;31.70;;;;;;20698;6834;120293;-77
2023/06/24 07:38:28;;;;;;;4.70;4.40;;;30.20;32.30;;;;;;20758;6821;116948;-77
2023/06/24 07:40:54;;;;;;;4.27;4.07;;;29.90;32.70;;;;;;20730;6821;121823;-75
2023/06/24 07:43:19;;;;;;;4.73;4.33;;;29.50;33.10;;;;;;20716;6839;118585;-75
2023/06/24 07:45:45;;;;;;;4.93;4.62;;;29.20;33.60;;;;;;20563;6822;277185;-77
2023/06/24 07:48:12;;;;;;;4.87;4.57;;;29.30;33.70;;;;;;20508;6838;278387;-77
2023/06/24 07:50:39;;;;;;;4.97;4.57;;;29.60;32.90;;;;;;20525;6823;340752;-76
2023/06/24 07:53:05;;;;;;;4.70;4.43;;;29.90;32.70;;;;;;20491;6838;307955;-73
2023/06/24 07:55:30;;;;;;;4.80;4.50;;;30.10;31.90;;;;;;20550;6823;307285;-74
2023/06/24 07:57:56;;;;;;;5.37;4.47;;;30.20;32.00;;;;;;20510;6839;296637;-75
2023/06/24 08:00:21;;;;;;;4.63;4.23;;;30.30;31.80;;;;;;20766;6824;117206;-78
2023/06/24 08:02:48;;;;;;;4.80;4.60;;;30.20;32.20;;;;;;20528;6839;285521;-77
2023/06/24 08:05:14;;;;;;;4.20;4.00;;;30.20;31.90;;;;;;20730;6830;117771;-76
2023/06/24 08:07:39;;;;;;;4.30;4.10;;;30.10;31.70;;;;;;20695;6830;117443;-75
2023/06/24 08:10:05;;;;;;;4.25;4.05;;;29.80;32.10;;;;;;20567;6820;278859;-78
2023/06/24 08:12:31;;;;;;;4.90;4.60;;;30.00;32.90;;;;;;20777;6820;116836;-74
2023/06/24 08:14:56;;;;;;;4.80;4.40;;;29.90;32.90;;;;;;20755;6820;120968;-73
2023/06/24 08:17:22;;;;;;;4.47;4.07;;;29.80;33.20;;;;;;20788;6820;121449;-74
2023/06/24 08:19:48;;;;;;;4.27;3.87;;;29.70;32.40;;;;;;20770;6820;116986;-75
2023/06/24 08:22:14;;;;;;;4.17;3.97;;;29.70;32.30;;;;;;20781;6820;117527;-74
2023/06/24 08:24:39;;;;;;;4.00;3.70;;;29.60;32.20;;;;;;20571;6820;317312;-73
2023/06/24 08:27:05;;;;;;;4.20;3.90;;;30.00;31.20;;;;;;20478;6820;322197;-74
2023/06/24 08:29:30;;;;;;;4.20;4.00;;;30.50;29.60;;;;;;20733;6820;117614;-73
2023/06/24 08:31:56;;;;;;;4.00;3.70;;;30.50;29.70;;;;;;20744;6820;117048;-73
2023/06/24 08:34:21;;;;;;;4.40;4.20;;;30.30;30.00;;;;;;20521;6820;307801;-75
2023/06/24 08:36:47;;;;;;;4.50;4.20;;;30.60;29.50;;;;;;20491;6820;281548;-75
2023/06/24 08:39:13;;;;;;;4.50;4.30;;;30.90;29.60;;;;;;20513;6820;310311;-74
2023/06/24 08:41:38;;;;;;;4.20;4.00;;;31.20;28.80;;;;;;20770;6820;119939;-75
2023/06/24 08:44:04;;;;;;;4.53;4.00;;;31.10;29.10;;;;;;20561;6820;278368;-76
2023/06/24 08:46:30;;;;;;;4.40;4.20;;;31.10;29.10;;;;;;20551;6820;306587;-73
2023/06/24 08:48:59;;;;;;;4.37;4.07;;;31.00;29.30;;;;;;20762;6820;117041;-72
2023/06/24 08:51:26;;;;;;;4.50;4.30;;;30.70;29.60;;;;;;20728;6820;117174;-72
2023/06/24 08:53:51;;;;;;;4.82;4.50;;;30.60;29.60;;;;;;20562;6820;336864;-73
2023/06/24 08:56:17;;;;;;;4.32;4.12;;;30.70;29.50;;;;;;20573;6818;277518;-72
2023/06/24 08:58:42;;;;;;;6.00;3.93;;;31.00;29.80;;;;;;20787;6819;116849;-73
2023/06/24 09:01:08;;;;;;;4.87;4.57;;;30.90;29.90;;;;;;20556;6819;430349;-73
2023/06/24 09:03:33;;;;;;;6.33;4.30;;;31.00;29.90;;;;;;20780;6819;119354;-71
2023/06/24 09:05:59;;;;;;;3.73;3.53;;;30.90;30.40;;;;;;20778;6819;117751;-71
2023/06/24 09:08:25;;;;;;;4.47;4.00;;;30.80;30.30;;;;;;20771;6819;117377;-71
2023/06/24 09:10:55;;;;;;;4.37;4.12;;;30.60;29.70;;;;;;20506;6826;311965;-71
2023/06/24 09:13:19;;;;;;;3.90;3.70;;;30.70;28.60;;;;;;20754;6824;119708;-72
2023/06/24 09:15:45;;;;;;;4.53;4.17;;;30.70;29.40;;;;;;20736;6830;117809;-72
2023/06/24 09:18:11;;;;;;;4.30;4.00;;;30.70;29.20;;;;;;20489;6841;282685;-73
2023/06/24 09:20:39;;;;;;;4.68;4.22;;;31.10;28.70;;;;;;20501;6841;311955;-72
2023/06/24 09:23:02;;;;;;;4.40;4.03;;;31.10;28.70;;;;;;20711;6826;117802;-72
2023/06/24 09:25:29;;;;;;;5.62;4.10;;;31.10;28.90;;;;;;20536;6826;316968;-72
2023/06/24 09:27:56;;;;;;;3.63;3.43;;;31.30;28.50;;;;;;20761;6826;117041;-74
2023/06/24 09:30:21;;;;;;;3.30;3.10;;;31.30;28.00;;;;;;20520;6830;307243;-71
2023/06/24 09:32:48;;;;;;;3.53;3.33;;;31.30;25.80;;;;;;20748;6826;117040;-72
2023/06/24 09:35:14;;;;;;;3.90;3.70;;;31.30;26.60;;;;;;20518;6830;316407;-72
2023/06/24 09:37:39;;;;;;;3.43;3.20;;;31.50;26.70;;;;;;20743;6830;117052;-74
2023/06/24 09:40:06;;;;;;;3.47;3.28;;;31.60;27.00;;;;;;20702;6845;118681;-73
2023/06/24 09:42:32;;;;;;;4.20;3.57;;;31.30;27.30;;;;;;20740;6830;119689;-72
2023/06/24 09:44:57;;;;;;;5.70;3.83;;;31.20;27.20;;;;;;20658;6845;117322;-73
2023/06/24 09:47:27;;;;;;;4.20;3.80;;;31.10;27.40;;;;;;20747;6830;119701;-73
2023/06/24 09:49:48;;;;;;;3.43;3.23;;;30.90;27.70;;;;;;20722;6832;117365;-74
2023/06/24 09:52:16;;;;;;;4.18;3.97;;;30.80;27.80;;;;;;20551;6827;282181;-74
2023/06/24 09:54:39;;;;;;;4.10;3.80;;;31.00;27.30;;;;;;20536;6827;277436;-74
2023/06/24 09:57:09;;;;;;;4.00;3.80;;;31.70;27.60;;;;;;20536;6827;283516;-75
2023/06/24 09:59:33;;;;;;;4.20;3.90;;;31.70;27.50;;;;;;20755;6827;117243;-74
2023/06/24 10:01:58;;;;;;;3.50;3.30;;;31.70;27.40;;;;;;20751;6827;117219;-75
2023/06/24 10:04:25;;;;;;;3.60;3.40;;;31.50;27.20;;;;;;20572;6811;306331;-76
2023/06/24 10:06:51;;;;;;;4.13;3.83;;;31.70;27.30;;;;;;20560;6811;306607;-76
2023/06/24 10:09:17;;;;;;;3.90;3.70;;;31.90;26.60;;;;;;20765;6824;117185;-74
2023/06/24 10:11:43;;;;;;;3.92;3.72;;;31.80;26.80;;;;;;20534;6826;310281;-78
2023/06/24 10:14:09;;;;;;;4.23;4.03;;;31.80;26.90;;;;;;20556;6826;278465;-77
2023/06/24 10:16:36;;;;;;;3.80;3.60;;;31.90;26.70;;;;;;20772;6826;117020;-76
2023/06/24 10:19:02;;;;;;;3.70;3.40;;;31.80;26.90;;;;;;20739;6826;117540;-77
2023/06/24 10:21:46;;;;;;;3.40;3.20;;;31.50;27.50;;;;;;20753;6826;117829;-78
2023/06/24 10:24:10;;;;;;;3.70;3.40;;;31.40;27.70;;;;;;19651;7180;123004;-76
2023/06/24 10:26:39;;;;;;;3.70;3.50;;;31.30;27.70;;;;;;19994;6837;279885;-81
2023/06/24 10:29:07;;;;;;;3.60;3.45;;;31.40;26.90;;;;;;20518;6837;278839;-78
2023/06/24 10:31:39;;;;;;;3.50;3.30;;;31.70;26.30;;;;;;20718;6837;117311;-77
2023/06/24 10:34:28;;;;;;;3.70;3.50;;;31.70;26.60;;;;;;20748;6837;117126;-76
2023/06/24 10:36:54;;;;;;;3.47;3.37;;;31.60;26.80;;;;;;20710;6837;118293;-77
2023/06/24 10:39:39;;;;;;;3.60;3.40;;;31.60;26.80;;;;;;20736;6837;117343;-75
2023/06/24 10:42:32;;;;;;;3.25;3.05;;;31.50;26.60;;;;;;20538;6820;306717;-77
2023/06/24 10:45:00;;;;;;;3.10;3.00;;;31.70;25.60;;;;;;20724;6820;117650;-77
2023/06/24 10:47:25;;;;;;;3.60;3.40;;;31.70;26.20;;;;;;20531;6835;339019;-83
2023/06/24 10:49:52;;;;;;;5.73;2.90;;;31.80;27.10;;;;;;20688;6831;117879;-80
2023/06/24 10:52:21;;;;;;;3.10;2.90;;;31.90;26.50;;;;;;20752;6831;117470;-77
2023/06/24 10:54:47;;;;;;;3.67;3.43;;;31.80;26.20;;;;;;20741;6831;117483;-78
2023/06/24 10:57:13;;;;;;;3.28;3.08;;;31.80;26.10;;;;;;20486;6831;306749;-76
2023/06/24 10:59:42;;;;;;;3.60;3.40;;;31.80;26.10;;;;;;20670;6837;122267;-76
2023/06/24 11:02:12;;;;;;;3.30;3.10;;;31.80;25.90;;;;;;20420;6845;283101;-76
2023/06/24 11:04:34;;;;;;;3.92;3.58;;;31.90;25.50;;;;;;20424;6842;339908;-76
2023/06/24 11:07:00;;;;;;;3.93;3.63;;;32.00;25.70;;;;;;20423;6830;284586;-75
2023/06/24 11:09:25;;;;;;;3.10;2.90;;;32.20;25.50;;;;;;20686;6827;118387;-75
2023/06/24 11:11:51;;;;;;;3.43;3.23;;;32.10;25.50;;;;;;20485;6827;278026;-75
2023/06/24 11:14:21;;;;;;;3.37;3.13;;;32.30;24.70;;;;;;20459;6830;302746;-75
2023/06/24 11:16:47;;;;;;;3.37;3.17;;;32.20;24.70;;;;;;20501;6821;310544;-75
2023/06/24 11:19:12;;;;;;;2.90;2.80;;;32.40;25.20;;;;;;20661;6839;117194;-76
2023/06/24 11:21:38;;;;;;;3.47;3.20;;;32.20;25.00;;;;;;20552;6822;278116;-75
2023/06/24 11:24:04;;;;;;;3.80;3.50;;;32.20;24.30;;;;;;20519;6838;308725;-74
2023/06/24 11:26:29;;;;;;;2.73;2.63;;;32.30;24.60;;;;;;20760;6823;117336;-76
2023/06/24 11:28:56;;;;;;;3.30;3.10;;;32.20;24.40;;;;;;20494;6838;294890;-71
2023/06/24 11:31:25;;;;;;;3.50;3.30;;;32.10;24.80;;;;;;20559;6824;295160;-72
2023/06/24 11:33:50;;;;;;;3.37;3.10;;;32.20;23.80;;;;;;20493;6839;305461;-73
2023/06/24 11:36:20;;;;;;;3.40;3.20;;;32.20;24.70;;;;;;20775;6824;117012;-72
2023/06/24 11:38:46;;;;;;;3.10;3.00;;;32.00;24.60;;;;;;20714;6838;117168;-71
2023/06/24 11:41:13;;;;;;;3.40;3.10;;;31.90;24.50;;;;;;20539;6824;307800;-74
2023/06/24 11:43:45;;;;;;;3.77;3.47;;;32.00;24.70;;;;;;20502;6838;309835;-75
2023/06/24 11:46:20;;;;;;;3.30;3.10;;;32.20;24.20;;;;;;20550;6824;298688;-76
2023/06/24 11:48:46;;;;;;;3.28;2.97;;;32.20;24.20;;;;;;20511;6838;308774;-78
2023/06/24 11:51:12;;;;;;;3.17;2.97;;;32.20;23.70;;;;;;20744;6824;117134;-73
2023/06/24 11:53:43;;;;;;;3.30;3.10;;;32.00;23.80;;;;;;20509;6838;280425;-78
2023/06/24 11:56:07;;;;;;;3.27;3.00;;;31.90;24.00;;;;;;20784;6824;117287;-77
2023/06/24 11:58:33;;;;;;;3.30;3.10;;;31.80;23.80;;;;;;20502;6839;306278;-76
2023/06/24 12:00:59;;;;;;;2.70;2.60;;;31.70;23.70;;;;;;20732;6824;118137;-74
2023/06/24 12:03:24;;;;;;;3.33;3.13;;;31.70;23.70;;;;;;20723;6839;124223;-75
2023/06/24 12:05:50;;;;;;;2.80;2.70;;;31.40;23.80;;;;;;20522;6839;289520;-74
2023/06/24 12:08:16;;;;;;;3.30;3.00;;;31.40;23.80;;;;;;20772;6824;117950;-75
2023/06/24 12:10:42;;;;;;;2.80;2.70;;;31.40;23.70;;;;;;20707;6839;117646;-76
2023/06/24 12:13:08;;;;;;;3.10;2.90;;;31.00;23.80;;;;;;20744;6824;118699;-75
2023/06/24 12:15:34;;;;;;;2.90;2.70;;;31.00;23.80;;;;;;20709;6839;117424;-76
2023/06/24 12:17:59;;;;;;;3.10;2.90;;;30.90;24.00;;;;;;20554;6824;308969;-75
2023/06/24 12:20:26;;;;;;;3.10;2.97;;;31.00;23.70;;;;;;20769;6824;118378;-74
2023/06/24 12:22:51;;;;;;;3.33;3.13;;;31.00;24.00;;;;;;20697;6839;118477;-76
2023/06/24 12:25:17;;;;;;;2.90;2.80;;;30.90;24.50;;;;;;20768;6824;117179;-74
2023/06/24 12:27:43;;;;;;;3.40;3.10;;;30.80;24.70;;;;;;20697;6839;117106;-76
2023/06/24 12:30:10;;;;;;;4.43;2.90;;;30.80;24.70;;;;;;20789;6824;71549;-78
2023/06/24 12:32:37;;;;;;;3.28;3.00;;;30.70;24.80;;;;;;20572;6822;279223;-77
2023/06/24 12:35:03;;;;;;;3.30;3.00;;;31.00;25.00;;;;;;20543;6823;337636;-77
2023/06/24 12:37:32;;;;;;;3.87;2.97;;;31.30;24.20;;;;;;20722;6838;121546;-76
2023/06/24 12:39:57;;;;;;;2.90;2.80;;;31.40;24.00;;;;;;20755;6823;117432;-77
2023/06/24 12:42:22;;;;;;;2.90;2.80;;;31.10;23.80;;;;;;20732;6839;117822;-78
2023/06/24 12:44:49;;;;;;;3.20;3.00;;;30.90;24.10;;;;;;20560;6824;310677;-77
2023/06/24 12:47:15;;;;;;;3.40;3.20;;;31.00;23.80;;;;;;20724;6839;117793;-77
2023/06/24 12:49:40;;;;;;;3.03;2.93;;;31.10;24.20;;;;;;20781;6824;117019;-75
2023/06/24 12:52:06;;;;;;;2.80;2.70;;;30.90;24.20;;;;;;20711;6838;118212;-77
2023/06/24 12:54:41;;;;;;;3.43;3.00;;;30.80;24.40;;;;;;20516;6824;309350;-77
2023/06/24 12:57:14;;;;;;;3.30;3.10;;;31.00;23.90;;;;;;20652;6839;67411;-76
2023/06/24 13:02:50;;;;;;;3.00;2.90;;;31.10;23.90;;;;;;20472;6839;277657;-77
2023/06/24 13:05:16;;;;;;;2.83;2.72;;;31.30;23.60;;;;;;20477;6838;312393;-76
2023/06/24 13:07:41;;;;;;;3.03;2.90;;;31.40;23.30;;;;;;20502;6836;306350;-76
2023/06/24 13:10:07;;;;;;;4.50;2.80;;;31.60;23.10;;;;;;20481;6836;280057;-75
2023/06/24 13:12:33;;;;;;;3.10;2.90;;;31.70;23.40;;;;;;20699;6836;117042;-76
2023/06/24 13:14:58;;;;;;;5.20;2.90;;;31.50;23.00;;;;;;20692;6834;117667;-75
2023/06/24 13:17:25;;;;;;;2.90;2.80;;;31.00;22.90;;;;;;20478;6834;278075;-77
2023/06/24 13:19:50;;;;;;;3.05;2.85;;;31.00;22.90;;;;;;20490;6834;307921;-76
2023/06/24 13:22:16;;;;;;;3.15;3.03;;;31.10;22.80;;;;;;20491;6834;307665;-77